createdAt,value
2022-11-27T00:02:40.563Z,46.00
2022-11-27T00:07:45.131Z,46.93
2022-11-27T00:12:50.666Z,48.53
2022-11-27T00:17:55.548Z,45.63
2022-11-27T00:23:01.459Z,56.77
2022-11-27T00:28:06.799Z,58.50
2022-11-27T00:33:12.885Z,47.63
2022-11-27T00:38:17.844Z,46.97
2022-11-27T00:43:22.884Z,50.30
2022-11-27T00:48:27.822Z,47.30
2022-11-27T00:53:33.595Z,44.57
2022-11-27T00:58:39.040Z,44.97
2022-11-27T01:03:43.946Z,44.53
2022-11-27T01:08:49.449Z,44.08
2022-11-27T01:13:57.029Z,44.20
2022-11-27T01:19:04.083Z,49.10
2022-11-27T01:24:11.467Z,48.85
2022-11-27T01:29:16.590Z,46.63
2022-11-27T01:34:21.611Z,44.90
2022-11-27T01:39:27.030Z,44.53
2022-11-27T01:44:38.638Z,45.97
2022-11-27T01:49:50.515Z,48.30
2022-11-27T01:55:04.807Z,51.73
2022-11-27T02:00:14.027Z,54.63
2022-11-27T02:05:23.032Z,54.90
2022-11-27T02:10:31.159Z,52.40
2022-11-27T02:15:45.444Z,53.65
2022-11-27T02:21:02.602Z,49.17
2022-11-27T02:26:38.848Z,49.20
2022-11-27T02:32:02.209Z,49.80
2022-11-27T02:37:16.925Z,50.83
2022-11-27T02:42:22.845Z,51.03
2022-11-27T02:47:30.260Z,50.13
2022-11-27T02:52:38.038Z,47.83
2022-11-27T02:57:44.984Z,46.27
2022-11-27T03:02:53.498Z,47.15
2022-11-27T03:08:02.653Z,46.43
2022-11-27T03:13:09.025Z,48.07
2022-11-27T03:18:17.458Z,47.00
2022-11-27T03:23:22.465Z,46.80
2022-11-27T03:28:30.282Z,46.03
2022-11-27T03:33:36.820Z,45.85
2022-11-27T03:38:43.430Z,44.97
2022-11-27T03:43:58.165Z,44.57
2022-11-27T03:49:24.587Z,43.70
2022-11-27T03:54:36.305Z,44.70
2022-11-27T03:59:44.260Z,43.97
2022-11-27T04:04:49.722Z,44.70
2022-11-27T04:09:54.877Z,47.62
2022-11-27T04:14:59.852Z,47.40
2022-11-27T04:20:05.596Z,45.10
2022-11-27T04:25:10.878Z,46.57
2022-11-27T04:30:16.135Z,43.00
2022-11-27T04:35:21.486Z,43.30
2022-11-27T04:40:26.869Z,42.67
2022-11-27T04:45:32.986Z,42.07
2022-11-27T04:50:38.500Z,42.23
2022-11-27T04:55:43.869Z,40.48
2022-11-27T05:00:49.272Z,41.42
2022-11-27T05:05:58.522Z,41.28
2022-11-27T05:11:07.285Z,44.38
2022-11-27T05:16:12.863Z,42.83
2022-11-27T05:21:18.794Z,43.23
2022-11-27T05:26:24.474Z,42.83
2022-11-27T05:31:30.214Z,43.33
2022-11-27T05:36:35.963Z,42.90
2022-11-27T05:41:43.569Z,44.50
2022-11-27T05:46:48.754Z,43.00
2022-11-27T05:51:54.056Z,70.37
2022-11-27T05:56:59.366Z,55.37
2022-11-27T06:02:04.920Z,42.77
2022-11-27T06:07:10.108Z,41.80
2022-11-27T06:12:15.485Z,43.03
2022-11-27T06:17:20.620Z,40.73
2022-11-27T06:22:25.751Z,40.70
2022-11-27T06:27:34.520Z,40.07
2022-11-27T06:32:42.243Z,44.77
2022-11-27T06:37:48.456Z,45.90
2022-11-27T06:42:53.521Z,46.10
2022-11-27T06:48:00.007Z,44.00
2022-11-27T06:53:05.048Z,55.60
2022-11-27T06:58:11.876Z,41.73
2022-11-27T07:03:17.127Z,42.43
2022-11-27T07:08:22.979Z,41.97
2022-11-27T07:13:28.429Z,40.70
2022-11-27T07:18:40.025Z,41.43
2022-11-27T07:23:45.849Z,54.80
2022-11-27T07:28:51.931Z,53.40
2022-11-27T07:33:58.432Z,45.70
2022-11-27T07:39:04.345Z,41.20
2022-11-27T07:44:11.764Z,41.43
2022-11-27T07:49:17.234Z,41.60
2022-11-27T07:54:22.186Z,41.97
2022-11-27T07:59:28.389Z,42.27
2022-11-27T08:04:33.929Z,41.70
2022-11-27T08:09:40.062Z,43.70
2022-11-27T08:14:44.984Z,47.00
2022-11-27T08:19:50.694Z,41.98
2022-11-27T08:24:55.883Z,44.53
2022-11-27T08:30:02.182Z,42.50
2022-11-27T08:35:08.599Z,44.40
2022-11-27T08:45:19.055Z,49.27
2022-11-27T08:50:24.581Z,55.60
2022-11-27T08:55:29.883Z,65.83
2022-11-27T09:00:36.100Z,66.87
2022-11-27T09:05:44.894Z,57.38
2022-11-27T09:10:50.136Z,56.83
2022-11-27T09:15:56.563Z,54.47
2022-11-27T09:21:05.614Z,61.98
2022-11-27T09:26:15.612Z,61.23
2022-11-27T09:31:22.002Z,67.57
2022-11-27T09:41:43.939Z,52.20
2022-11-27T09:46:49.454Z,52.58
2022-11-27T09:52:06.880Z,53.38
2022-11-27T09:57:20.877Z,48.13
2022-11-27T10:02:34.630Z,46.77
2022-11-27T10:08:06.908Z,44.37
2022-11-27T10:13:29.412Z,45.67
2022-11-27T10:18:48.504Z,45.83
2022-11-27T10:24:02.490Z,45.30
2022-11-27T10:29:25.439Z,45.97
2022-11-27T10:34:42.623Z,45.13
2022-11-27T10:39:51.747Z,44.15
2022-11-27T10:45:06.268Z,47.63
2022-11-27T10:50:16.305Z,48.20
2022-11-27T10:55:24.317Z,48.03
2022-11-27T11:00:30.055Z,48.40
2022-11-27T11:05:57.414Z,48.67
2022-11-27T11:10:47.648Z,48.07
2022-11-27T11:15:55.876Z,47.90
2022-11-27T11:21:05.017Z,48.50
2022-11-27T11:26:16.434Z,49.57
2022-11-27T11:31:24.882Z,48.67
2022-11-27T11:36:31.407Z,49.10
2022-11-27T11:41:42.003Z,49.53
2022-11-27T11:46:54.281Z,50.47
2022-11-27T11:52:08.812Z,47.67
2022-11-27T11:57:33.098Z,48.63
2022-11-27T12:03:01.405Z,46.53
2022-11-27T12:08:25.980Z,48.40
2022-11-27T12:13:50.996Z,49.07
2022-11-27T12:19:19.903Z,47.53
2022-11-27T12:24:34.861Z,48.23
2022-11-27T12:30:05.696Z,47.17
2022-11-27T12:35:34.113Z,48.05
2022-11-27T12:40:49.161Z,48.57
2022-11-27T12:46:07.824Z,48.43
2022-11-27T12:51:18.762Z,48.80
2022-11-27T12:56:36.180Z,47.97
2022-11-27T13:01:48.627Z,48.84
2022-11-27T13:07:12.194Z,49.47
2022-11-27T13:12:26.304Z,48.37
2022-11-27T13:17:37.942Z,47.07
2022-11-27T13:22:46.413Z,48.07
2022-11-27T13:27:54.476Z,49.80
2022-11-27T13:33:05.948Z,51.90
2022-11-27T13:38:20.991Z,50.10
2022-11-27T13:43:44.188Z,48.03
2022-11-27T13:48:56.147Z,47.78
2022-11-27T13:54:13.139Z,49.77
2022-11-27T13:59:26.318Z,46.70
2022-11-27T14:04:33.067Z,46.43
2022-11-27T14:09:44.614Z,46.17
2022-11-27T14:15:11.422Z,45.70
2022-11-27T14:20:26.128Z,46.10
2022-11-27T14:25:39.618Z,46.33
2022-11-27T14:30:51.898Z,46.43
2022-11-27T14:36:02.866Z,48.97
2022-11-27T14:41:19.916Z,46.33
2022-11-27T14:46:25.902Z,50.05
2022-11-27T14:51:37.359Z,50.80
2022-11-27T14:56:44.649Z,52.93
2022-11-27T15:07:23.688Z,46.67
2022-11-27T15:12:34.076Z,53.47
2022-11-27T15:17:41.176Z,54.73
2022-11-27T15:22:55.216Z,53.13
2022-11-27T15:28:01.117Z,49.30
2022-11-27T15:33:06.626Z,49.43
2022-11-27T15:38:14.032Z,51.07
2022-11-27T15:43:19.084Z,46.47
2022-11-27T15:48:24.750Z,45.60
2022-11-27T15:53:30.144Z,50.35
2022-11-27T15:58:35.744Z,47.33
2022-11-27T16:03:41.887Z,48.07
2022-11-27T16:08:47.223Z,46.63
2022-11-27T16:13:53.117Z,48.33
2022-11-27T16:19:01.066Z,49.18
2022-11-27T16:29:13.417Z,46.43
2022-11-27T16:34:18.825Z,48.13
2022-11-27T16:39:26.845Z,48.43
2022-11-27T16:44:32.320Z,49.47
2022-11-27T16:49:39.171Z,46.85
2022-11-27T16:54:45.449Z,48.40
2022-11-27T16:59:51.991Z,51.47
2022-11-27T17:04:57.066Z,50.63
2022-11-27T17:10:03.678Z,48.33
2022-11-27T17:15:10.162Z,48.52
2022-11-27T17:20:15.165Z,47.07
2022-11-27T17:25:20.828Z,48.13
2022-11-27T17:30:26.482Z,50.30
2022-11-27T17:35:33.240Z,51.67
2022-11-27T17:40:39.450Z,50.03
2022-11-27T17:45:44.863Z,51.40
2022-11-27T17:50:50.904Z,47.70
2022-11-27T17:55:57.353Z,46.33
2022-11-27T18:01:02.659Z,46.60
2022-11-27T18:06:08.052Z,45.87
2022-11-27T18:11:15.860Z,45.83
2022-11-27T18:16:30.632Z,45.30
2022-11-27T18:21:39.370Z,45.82
2022-11-27T18:31:53.948Z,46.43
2022-11-27T18:37:00.883Z,47.78
2022-11-27T18:42:07.319Z,49.10
2022-11-27T18:47:14.188Z,49.70
2022-11-27T18:52:19.589Z,49.40
2022-11-27T18:57:25.271Z,47.20
2022-11-27T19:02:30.719Z,61.50
2022-11-27T19:07:36.910Z,51.50
2022-11-27T19:12:42.242Z,51.90
2022-11-27T19:17:47.728Z,52.67
2022-11-27T19:22:53.385Z,54.33
2022-11-27T19:28:00.663Z,54.50
2022-11-27T19:33:06.430Z,55.60
2022-11-27T19:38:11.398Z,58.23
2022-11-27T19:43:16.742Z,51.95
2022-11-27T19:48:23.578Z,50.50
2022-11-27T19:53:29.874Z,48.70
2022-11-27T19:58:35.652Z,49.77
2022-11-27T20:03:42.456Z,47.90
2022-11-27T20:08:49.172Z,46.57
2022-11-27T20:13:59.778Z,46.80
2022-11-27T20:19:06.050Z,47.10
2022-11-27T20:24:12.415Z,45.80
2022-11-27T20:29:17.854Z,55.80
2022-11-27T20:34:23.678Z,47.50
2022-11-27T20:39:28.941Z,44.97
2022-11-27T20:44:34.206Z,46.93
2022-11-27T20:49:39.238Z,48.10
2022-11-27T20:54:44.443Z,44.03
2022-11-27T20:59:50.190Z,46.35
2022-11-27T21:04:55.647Z,47.30
2022-11-27T21:10:01.026Z,45.80
2022-11-27T21:15:07.912Z,45.83
2022-11-27T21:20:13.894Z,44.73
2022-11-27T21:25:24.012Z,40.57
2022-11-27T21:30:26.597Z,41.43
2022-11-27T21:35:34.762Z,40.37
2022-11-27T21:40:38.907Z,39.18
2022-11-27T21:45:44.102Z,41.70
2022-11-27T21:50:49.645Z,40.63
2022-11-27T21:55:54.727Z,48.37
2022-11-27T22:00:59.732Z,44.77
2022-11-27T22:06:08.222Z,45.33
2022-11-27T22:11:17.150Z,40.40
2022-11-27T22:16:25.230Z,38.10
2022-11-27T22:21:32.345Z,39.13
2022-11-27T22:26:37.661Z,37.67
2022-11-27T22:31:42.698Z,37.53
2022-11-27T22:36:48.354Z,37.20
2022-11-27T22:41:54.014Z,38.00
2022-11-27T22:46:59.723Z,37.13
2022-11-27T22:52:05.310Z,36.17
2022-11-27T22:57:10.330Z,36.47
2022-11-27T23:02:16.209Z,36.73
2022-11-27T23:07:25.185Z,38.70
2022-11-27T23:12:28.743Z,35.53
2022-11-27T23:17:33.758Z,39.20
2022-11-27T23:22:39.299Z,36.30
2022-11-27T23:27:44.938Z,36.70
2022-11-27T23:32:50.065Z,34.33
2022-11-27T23:37:55.647Z,34.97
2022-11-27T23:43:01.327Z,34.57
2022-11-27T23:48:06.725Z,34.92
2022-11-27T23:53:11.799Z,35.37
2022-11-27T23:58:17.037Z,34.53
